createdAt,value
2022-12-08T00:00:04.963Z,67.60
2022-12-08T00:02:33.158Z,67.60
2022-12-08T00:05:01.344Z,67.60
2022-12-08T00:07:29.230Z,67.70
2022-12-08T00:09:57.086Z,67.70
2022-12-08T00:12:26.241Z,67.70
2022-12-08T00:14:53.912Z,67.70
2022-12-08T00:17:21.726Z,67.80
2022-12-08T00:19:49.417Z,67.80
2022-12-08T00:22:17.036Z,67.70
2022-12-08T00:24:45.027Z,67.70
2022-12-08T00:27:14.017Z,67.70
2022-12-08T00:29:43.129Z,67.70
2022-12-08T00:32:10.730Z,67.80
2022-12-08T00:34:38.425Z,67.70
2022-12-08T00:37:06.139Z,68.60
2022-12-08T00:39:33.920Z,67.70
2022-12-08T00:42:01.567Z,67.70
2022-12-08T00:44:29.085Z,67.70
2022-12-08T00:46:58.204Z,67.70
2022-12-08T00:49:35.702Z,67.60
2022-12-08T00:52:03.529Z,67.60
2022-12-08T00:54:31.244Z,67.70
2022-12-08T00:56:58.936Z,67.70
2022-12-08T00:59:26.604Z,67.70
2022-12-08T01:01:54.301Z,68.50
2022-12-08T01:04:23.426Z,67.80
2022-12-08T01:06:51.025Z,67.80
2022-12-08T01:09:18.775Z,67.80
2022-12-08T01:11:47.601Z,67.80
2022-12-08T01:14:15.317Z,67.80
2022-12-08T01:16:43.065Z,67.80
2022-12-08T01:19:11.149Z,67.70
2022-12-08T01:21:40.192Z,67.70
2022-12-08T01:24:09.589Z,67.60
2022-12-08T01:26:37.201Z,67.60
2022-12-08T01:29:04.746Z,67.70
2022-12-08T01:31:32.468Z,67.70
2022-12-08T01:34:00.061Z,67.70
2022-12-08T01:36:28.564Z,67.80
2022-12-08T01:38:59.972Z,67.80
2022-12-08T01:41:28.579Z,67.80
2022-12-08T01:43:59.416Z,67.70
2022-12-08T01:46:28.365Z,67.70
2022-12-08T01:48:59.954Z,67.60
2022-12-08T01:51:27.802Z,67.60
2022-12-08T01:53:55.416Z,67.60
2022-12-08T01:56:27.956Z,67.60
2022-12-08T01:58:55.656Z,67.60
2022-12-08T02:01:23.520Z,67.70
2022-12-08T02:03:53.706Z,67.60
2022-12-08T02:06:21.241Z,67.60
2022-12-08T02:08:48.778Z,67.50
2022-12-08T02:11:16.585Z,67.60
2022-12-08T02:13:46.086Z,67.50
2022-12-08T02:16:20.864Z,67.50
2022-12-08T02:19:28.615Z,67.50
2022-12-08T02:21:47.787Z,67.50
2022-12-08T02:24:18.205Z,67.60
2022-12-08T02:27:08.365Z,67.50
2022-12-08T02:30:19.681Z,67.30
2022-12-08T02:33:08.049Z,67.40
2022-12-08T02:35:39.774Z,67.60
2022-12-08T02:38:10.197Z,67.60
2022-12-08T02:40:40.228Z,67.60
2022-12-08T02:43:09.713Z,67.60
2022-12-08T02:45:40.149Z,67.60
2022-12-08T02:48:07.724Z,67.60
2022-12-08T02:50:36.785Z,67.60
2022-12-08T02:55:34.832Z,67.50
2022-12-08T02:58:21.269Z,67.50
2022-12-08T03:00:58.067Z,67.30
2022-12-08T03:03:29.421Z,67.30
2022-12-08T03:06:04.043Z,67.30
2022-12-08T03:08:34.636Z,67.20
2022-12-08T03:11:02.914Z,67.20
2022-12-08T03:13:34.337Z,67.20
2022-12-08T03:16:02.025Z,67.20
2022-12-08T03:18:30.170Z,67.10
2022-12-08T03:20:59.306Z,67.20
2022-12-08T03:23:26.933Z,67.20
2022-12-08T03:25:56.988Z,67.20
2022-12-08T03:28:24.634Z,67.20
2022-12-08T03:30:53.298Z,67.20
2022-12-08T03:33:23.197Z,67.20
2022-12-08T03:35:50.919Z,67.30
2022-12-08T03:38:20.075Z,67.30
2022-12-08T03:40:47.644Z,67.20
2022-12-08T03:43:15.315Z,67.20
2022-12-08T03:45:42.953Z,67.20
2022-12-08T03:48:10.601Z,67.20
2022-12-08T03:50:38.252Z,67.10
2022-12-08T03:53:05.860Z,67.10
2022-12-08T03:55:35.047Z,67.10
2022-12-08T03:58:02.673Z,67.10
2022-12-08T04:00:30.490Z,67.20
2022-12-08T04:02:58.254Z,67.30
2022-12-08T04:05:26.028Z,67.20
2022-12-08T04:07:57.331Z,67.30
2022-12-08T04:10:24.915Z,67.30
2022-12-08T04:12:54.084Z,67.40
2022-12-08T04:15:21.859Z,67.30
2022-12-08T04:17:49.400Z,67.30
2022-12-08T04:20:16.975Z,67.40
2022-12-08T04:22:44.576Z,67.40
2022-12-08T04:25:12.618Z,67.50
2022-12-08T04:27:40.135Z,67.40
2022-12-08T04:30:10.984Z,67.40
2022-12-08T04:32:41.634Z,67.40
2022-12-08T04:35:12.086Z,67.40
2022-12-08T04:37:39.882Z,67.40
2022-12-08T04:40:08.401Z,67.40
2022-12-08T04:42:36.062Z,67.50
2022-12-08T04:45:04.119Z,67.40
2022-12-08T04:47:33.179Z,67.40
2022-12-08T04:50:00.890Z,67.40
2022-12-08T04:52:28.693Z,67.40
2022-12-08T04:54:56.380Z,67.40
2022-12-08T04:57:24.219Z,67.30
2022-12-08T04:59:51.769Z,67.40
2022-12-08T05:02:19.550Z,67.40
2022-12-08T05:04:48.929Z,67.40
2022-12-08T05:07:16.468Z,67.40
2022-12-08T05:09:44.124Z,67.30
2022-12-08T05:12:11.781Z,67.40
2022-12-08T05:14:39.523Z,67.40
2022-12-08T05:17:09.733Z,67.30
2022-12-08T05:19:37.753Z,67.30
2022-12-08T05:22:06.818Z,67.30
2022-12-08T05:24:34.403Z,67.30
2022-12-08T05:27:02.135Z,67.30
2022-12-08T05:29:29.694Z,68.10
2022-12-08T05:31:57.458Z,67.30
2022-12-08T05:34:25.286Z,67.30
2022-12-08T05:36:52.871Z,67.30
2022-12-08T05:39:21.938Z,67.30
2022-12-08T05:41:49.762Z,67.80
2022-12-08T05:44:17.497Z,67.40
2022-12-08T05:46:45.182Z,67.40
2022-12-08T05:49:12.857Z,67.30
2022-12-08T05:51:40.482Z,67.40
2022-12-08T05:54:08.185Z,67.40
2022-12-08T05:56:37.211Z,67.40
2022-12-08T05:59:06.143Z,67.40
2022-12-08T06:01:34.060Z,67.40
2022-12-08T06:04:02.434Z,67.40
2022-12-08T06:06:30.304Z,68.30
2022-12-08T06:08:58.055Z,67.40
2022-12-08T06:11:27.037Z,67.40
2022-12-08T06:13:56.386Z,67.40
2022-12-08T06:16:24.215Z,67.40
2022-12-08T06:18:52.045Z,67.40
2022-12-08T06:21:19.815Z,67.40
2022-12-08T06:23:48.753Z,67.40
2022-12-08T06:26:16.583Z,67.40
2022-12-08T06:28:44.330Z,67.40
2022-12-08T06:31:15.486Z,67.40
2022-12-08T06:33:43.357Z,67.40
2022-12-08T06:36:11.590Z,67.50
2022-12-08T06:38:43.101Z,67.50
2022-12-08T06:41:11.606Z,67.50
2022-12-08T06:43:39.196Z,67.50
2022-12-08T06:46:08.402Z,67.50
2022-12-08T06:48:37.716Z,67.40
2022-12-08T06:51:08.976Z,67.40
2022-12-08T06:53:36.635Z,67.50
2022-12-08T06:56:04.693Z,67.40
2022-12-08T06:58:32.289Z,67.40
2022-12-08T07:01:05.547Z,67.40
2022-12-08T07:03:33.174Z,67.40
2022-12-08T07:06:04.361Z,67.50
2022-12-08T07:08:32.679Z,67.40
2022-12-08T07:11:00.556Z,67.40
2022-12-08T07:13:28.218Z,67.40
2022-12-08T07:15:55.893Z,67.50
2022-12-08T07:18:23.756Z,67.50
2022-12-08T07:20:51.388Z,67.50
2022-12-08T07:23:20.518Z,67.50
2022-12-08T07:25:48.271Z,67.50
2022-12-08T07:28:15.759Z,67.50
2022-12-08T07:30:43.562Z,67.50
2022-12-08T07:33:11.502Z,67.50
2022-12-08T07:35:39.053Z,67.60
2022-12-08T07:38:06.799Z,67.60
2022-12-08T07:40:36.041Z,67.70
2022-12-08T07:43:03.771Z,67.70
2022-12-08T07:45:31.854Z,67.80
2022-12-08T07:47:59.941Z,67.80
2022-12-08T07:50:27.789Z,67.80
2022-12-08T07:52:55.557Z,67.80
2022-12-08T07:55:23.211Z,67.80
2022-12-08T07:57:52.321Z,67.80
2022-12-08T08:00:20.852Z,67.70
2022-12-08T08:02:48.486Z,67.70
2022-12-08T08:05:16.148Z,67.70
2022-12-08T08:07:43.744Z,67.70
2022-12-08T08:10:12.784Z,67.70
2022-12-08T08:12:40.550Z,67.70
2022-12-08T08:15:10.451Z,67.70
2022-12-08T08:17:38.339Z,67.70
2022-12-08T08:20:07.554Z,67.70
2022-12-08T08:22:35.317Z,67.70
2022-12-08T08:25:02.933Z,67.90
2022-12-08T08:27:30.511Z,67.70
2022-12-08T08:29:58.224Z,67.80
2022-12-08T08:32:27.540Z,67.70
2022-12-08T08:34:55.056Z,67.70
2022-12-08T08:37:22.885Z,67.70
2022-12-08T08:39:50.829Z,67.70
2022-12-08T08:42:18.578Z,67.70
2022-12-08T08:44:46.184Z,67.70
2022-12-08T08:47:13.790Z,67.80
2022-12-08T08:49:42.826Z,67.80
2022-12-08T08:52:10.968Z,67.80
2022-12-08T08:54:38.815Z,67.90
2022-12-08T08:57:06.624Z,67.90
2022-12-08T08:59:34.353Z,67.90
2022-12-08T09:02:02.059Z,67.90
2022-12-08T09:04:29.943Z,67.90
2022-12-08T09:06:59.238Z,67.90
2022-12-08T09:09:26.817Z,68.00
2022-12-08T09:11:54.389Z,68.00
2022-12-08T09:14:22.015Z,68.10
2022-12-08T09:16:49.626Z,68.00
2022-12-08T09:19:17.273Z,68.00
2022-12-08T09:21:45.058Z,67.90
2022-12-08T09:24:14.157Z,68.00
2022-12-08T09:26:41.875Z,68.00
2022-12-08T09:29:09.522Z,68.00
2022-12-08T09:31:37.132Z,68.00
2022-12-08T09:34:04.851Z,68.00
2022-12-08T09:36:32.520Z,68.10
2022-12-08T09:39:00.133Z,68.10
2022-12-08T09:41:37.965Z,68.10
2022-12-08T09:44:16.552Z,68.10
2022-12-08T09:46:44.339Z,68.10
2022-12-08T09:49:13.898Z,68.20
2022-12-08T09:51:41.487Z,68.20
2022-12-08T09:54:10.796Z,68.30
2022-12-08T09:56:39.954Z,68.20
2022-12-08T09:59:17.179Z,68.30
2022-12-08T10:01:44.792Z,68.20
2022-12-08T10:04:14.782Z,68.30
2022-12-08T10:06:44.984Z,68.20
2022-12-08T10:09:23.032Z,68.20
2022-12-08T10:11:55.825Z,68.30
2022-12-08T10:14:26.170Z,68.30
2022-12-08T10:16:55.753Z,68.30
2022-12-08T10:19:24.148Z,68.20
2022-12-08T10:21:52.181Z,68.20
2022-12-08T10:24:24.445Z,68.20
2022-12-08T10:26:53.955Z,68.10
2022-12-08T10:29:21.748Z,68.10
2022-12-08T10:31:49.691Z,68.20
2022-12-08T10:34:19.100Z,68.30
2022-12-08T10:36:48.874Z,68.20
2022-12-08T10:39:36.821Z,68.30
2022-12-08T10:42:20.889Z,68.10
2022-12-08T10:44:54.591Z,68.20
2022-12-08T10:47:23.096Z,68.40
2022-12-08T10:50:07.299Z,68.50
2022-12-08T10:52:38.546Z,68.40
2022-12-08T10:55:14.142Z,68.40
2022-12-08T10:57:43.420Z,68.30
2022-12-08T11:00:14.433Z,68.30
2022-12-08T11:02:56.850Z,68.30
2022-12-08T11:05:26.983Z,68.20
2022-12-08T11:07:55.142Z,68.20
2022-12-08T11:10:31.108Z,68.10
2022-12-08T11:13:02.525Z,68.00
2022-12-08T11:15:34.761Z,68.00
2022-12-08T11:18:07.703Z,68.00
2022-12-08T11:20:39.424Z,68.00
2022-12-08T11:23:21.677Z,68.00
2022-12-08T11:25:49.667Z,67.90
2022-12-08T11:28:21.008Z,68.00
2022-12-08T11:30:50.485Z,67.90
2022-12-08T11:33:20.413Z,68.00
2022-12-08T11:35:50.346Z,67.90
2022-12-08T11:38:22.087Z,67.90
2022-12-08T11:40:52.233Z,67.90
2022-12-08T11:43:23.183Z,67.80
2022-12-08T11:45:52.665Z,67.90
2022-12-08T11:48:23.258Z,67.90
2022-12-08T11:50:51.916Z,67.80
2022-12-08T11:53:25.439Z,67.80
2022-12-08T11:55:55.313Z,67.70
2022-12-08T11:58:26.989Z,67.80
2022-12-08T12:00:54.819Z,67.80
2022-12-08T12:03:27.910Z,67.80
2022-12-08T12:06:38.146Z,67.80
2022-12-08T12:09:10.006Z,67.80
2022-12-08T12:11:42.017Z,67.80
2022-12-08T12:14:18.845Z,67.70
2022-12-08T12:16:56.016Z,67.60
2022-12-08T12:19:24.005Z,67.60
2022-12-08T12:21:52.991Z,67.70
2022-12-08T12:24:26.053Z,67.60
2022-12-08T12:26:58.989Z,67.50
2022-12-08T12:29:29.671Z,67.50
2022-12-08T12:31:58.705Z,67.50
2022-12-08T12:34:27.433Z,67.50
2022-12-08T12:36:56.147Z,67.40
2022-12-08T12:39:25.404Z,67.40
2022-12-08T12:41:54.086Z,67.40
2022-12-08T12:44:40.713Z,67.30
2022-12-08T12:47:15.027Z,67.20
2022-12-08T12:50:15.649Z,67.40
2022-12-08T12:52:47.597Z,67.50
2022-12-08T12:55:50.500Z,67.40
2022-12-08T12:58:37.665Z,67.20
2022-12-08T13:01:41.963Z,67.30
2022-12-08T13:04:11.207Z,67.20
2022-12-08T13:06:41.556Z,67.30
2022-12-08T13:09:21.474Z,67.20
2022-12-08T13:11:52.022Z,67.10
2022-12-08T13:14:45.196Z,67.10
2022-12-08T13:17:13.452Z,66.90
2022-12-08T13:19:45.354Z,67.00
2022-12-08T13:22:46.690Z,67.00
2022-12-08T13:25:59.993Z,66.70
2022-12-08T13:28:29.064Z,66.80
2022-12-08T13:30:58.501Z,66.90
2022-12-08T13:33:31.328Z,66.80
2022-12-08T13:36:15.005Z,66.70
2022-12-08T13:38:43.463Z,66.50
2022-12-08T13:41:19.620Z,66.60
2022-12-08T13:44:20.167Z,66.40
2022-12-08T13:58:17.667Z,66.70
2022-12-08T14:00:55.299Z,66.60
2022-12-08T14:03:23.100Z,66.60
2022-12-08T14:11:30.017Z,66.60
2022-12-08T14:13:57.586Z,66.60
2022-12-08T14:16:28.552Z,66.50
2022-12-08T14:19:03.886Z,66.50
2022-12-08T14:21:36.045Z,66.50
2022-12-08T14:24:06.118Z,66.40
2022-12-08T14:26:34.374Z,66.30
2022-12-08T14:29:02.270Z,66.40
2022-12-08T14:31:30.150Z,66.30
2022-12-08T14:33:58.090Z,66.20
2022-12-08T14:36:25.903Z,66.20
2022-12-08T14:38:53.752Z,66.20
2022-12-08T14:41:26.214Z,66.10
2022-12-08T14:43:59.531Z,66.00
2022-12-08T14:46:27.441Z,65.90
2022-12-08T14:48:55.367Z,65.90
2022-12-08T14:51:29.031Z,65.90
2022-12-08T14:53:57.970Z,65.90
2022-12-08T14:56:31.702Z,65.90
2022-12-08T14:59:13.038Z,65.90
2022-12-08T15:01:40.797Z,65.60
2022-12-08T15:04:10.074Z,65.80
2022-12-08T15:06:37.919Z,65.70
2022-12-08T15:09:16.537Z,65.70
2022-12-08T15:11:45.748Z,65.30
2022-12-08T15:14:28.304Z,65.40
2022-12-08T15:16:55.869Z,65.20
2022-12-08T15:19:31.049Z,65.40
2022-12-08T15:21:59.402Z,65.20
2022-12-08T15:24:29.345Z,65.30
2022-12-08T15:26:58.586Z,65.10
2022-12-08T15:29:27.009Z,65.10
2022-12-08T15:31:55.790Z,65.10
2022-12-08T15:34:23.471Z,65.10
2022-12-08T15:36:51.995Z,65.10
2022-12-08T15:39:25.222Z,65.00
2022-12-08T15:41:53.744Z,65.00
2022-12-08T15:44:23.024Z,65.10
2022-12-08T15:46:50.857Z,65.10
2022-12-08T15:49:20.804Z,65.10
2022-12-08T15:51:48.640Z,65.10
2022-12-08T15:54:16.374Z,65.00
2022-12-08T15:57:17.496Z,65.00
2022-12-08T15:59:35.429Z,65.80
2022-12-08T16:02:03.160Z,65.00
2022-12-08T16:05:25.253Z,65.00
2022-12-08T16:07:22.293Z,64.90
2022-12-08T16:09:50.619Z,64.90
2022-12-08T16:12:19.721Z,64.90
2022-12-08T16:17:37.266Z,64.80
2022-12-08T16:20:05.930Z,64.90
2022-12-08T16:25:22.723Z,64.80
2022-12-08T16:28:36.789Z,64.90
2022-12-08T16:30:41.299Z,64.90
2022-12-08T16:33:09.873Z,64.90
2022-12-08T16:35:37.503Z,64.80
2022-12-08T16:38:05.426Z,64.80
2022-12-08T16:40:33.217Z,64.70
2022-12-08T16:43:01.008Z,64.70
2022-12-08T16:45:29.476Z,64.70
2022-12-08T16:47:59.859Z,64.60
2022-12-08T16:50:28.910Z,64.50
2022-12-08T16:52:57.117Z,64.70
2022-12-08T16:55:24.760Z,64.70
2022-12-08T16:57:52.427Z,64.70
2022-12-08T17:00:21.686Z,64.70
2022-12-08T17:02:49.468Z,64.60
2022-12-08T17:05:20.422Z,64.70
2022-12-08T17:07:49.655Z,64.60
2022-12-08T17:10:18.894Z,64.50
2022-12-08T17:12:46.438Z,64.60
2022-12-08T17:15:16.880Z,64.50
2022-12-08T17:17:44.526Z,64.50
2022-12-08T17:20:13.552Z,64.50
2022-12-08T17:22:42.841Z,64.50
2022-12-08T17:25:10.661Z,64.50
2022-12-08T17:27:38.326Z,64.50
2022-12-08T17:30:08.151Z,64.60
2022-12-08T17:32:37.873Z,64.70
2022-12-08T17:35:06.488Z,64.70
2022-12-08T17:37:34.628Z,64.60
2022-12-08T17:40:05.006Z,64.60
2022-12-08T17:42:32.974Z,64.50
2022-12-08T17:45:00.765Z,64.50
2022-12-08T17:47:28.723Z,64.50
2022-12-08T17:49:56.519Z,64.50
2022-12-08T17:52:24.529Z,64.50
2022-12-08T17:54:52.261Z,64.40
2022-12-08T17:57:21.525Z,64.50
2022-12-08T17:59:49.297Z,64.50
2022-12-08T18:02:16.923Z,64.50
2022-12-08T18:04:44.789Z,65.30
2022-12-08T18:07:12.610Z,64.40
2022-12-08T18:09:40.404Z,64.40
2022-12-08T18:12:08.304Z,64.40
2022-12-08T18:14:37.438Z,64.30
2022-12-08T18:17:05.140Z,64.40
2022-12-08T18:19:32.873Z,64.50
2022-12-08T18:22:00.717Z,64.50
2022-12-08T18:24:28.453Z,64.50
2022-12-08T18:26:56.082Z,64.40
2022-12-08T18:29:24.209Z,64.50
2022-12-08T18:31:53.317Z,64.50
2022-12-08T18:34:20.879Z,64.40
2022-12-08T18:36:48.573Z,64.40
2022-12-08T18:39:22.917Z,64.40
2022-12-08T18:41:50.625Z,64.30
2022-12-08T18:44:18.347Z,64.40
2022-12-08T18:46:45.923Z,64.30
2022-12-08T18:49:16.740Z,64.30
2022-12-08T18:51:44.322Z,64.30
2022-12-08T18:54:12.084Z,64.20
2022-12-08T18:56:39.890Z,64.10
2022-12-08T18:59:09.264Z,64.20
2022-12-08T19:01:37.629Z,64.10
2022-12-08T19:06:56.047Z,64.00
2022-12-08T19:09:23.775Z,64.10
2022-12-08T19:11:51.593Z,64.00
2022-12-08T19:14:25.753Z,64.10
2022-12-08T19:16:55.582Z,64.00
2022-12-08T19:19:23.321Z,64.00
2022-12-08T19:21:51.103Z,64.00
2022-12-08T19:24:20.352Z,64.00
2022-12-08T19:26:48.046Z,64.00
2022-12-08T19:29:15.870Z,64.00
2022-12-08T19:31:43.596Z,63.90
2022-12-08T19:34:12.425Z,63.80
2022-12-08T19:36:40.245Z,63.80
2022-12-08T19:39:08.119Z,63.80
2022-12-08T19:41:37.603Z,63.70
2022-12-08T19:44:05.368Z,64.60
2022-12-08T19:46:37.452Z,63.70
2022-12-08T19:49:08.389Z,63.60
2022-12-08T19:51:35.910Z,63.70
2022-12-08T19:54:03.744Z,63.70
2022-12-08T19:56:31.386Z,63.70
2022-12-08T19:59:00.575Z,63.80
2022-12-08T20:01:28.390Z,63.70
2022-12-08T20:03:56.209Z,63.70
2022-12-08T20:06:23.938Z,63.70
2022-12-08T20:08:51.785Z,63.70
2022-12-08T20:11:19.471Z,63.80
2022-12-08T20:13:47.247Z,63.80
2022-12-08T20:16:16.397Z,63.80
2022-12-08T20:18:44.158Z,63.70
2022-12-08T20:21:12.104Z,63.80
2022-12-08T20:23:39.808Z,63.70
2022-12-08T20:26:08.304Z,63.70
2022-12-08T20:28:36.096Z,63.60
2022-12-08T20:31:03.868Z,63.60
2022-12-08T20:33:33.148Z,63.60
2022-12-08T20:36:01.303Z,63.60
2022-12-08T20:38:28.845Z,63.60
2022-12-08T20:40:56.793Z,63.60
2022-12-08T20:43:24.496Z,63.70
2022-12-08T20:45:52.148Z,63.70
2022-12-08T20:48:19.898Z,63.70
2022-12-08T20:50:50.800Z,63.70
2022-12-08T20:53:18.709Z,63.70
2022-12-08T20:55:46.559Z,63.70
2022-12-08T20:58:14.205Z,63.70
2022-12-08T21:00:41.802Z,63.60
2022-12-08T21:03:09.929Z,63.60
2022-12-08T21:05:37.826Z,63.70
2022-12-08T21:08:07.232Z,63.70
2022-12-08T21:10:39.145Z,63.80
2022-12-08T21:13:09.904Z,63.80
2022-12-08T21:15:37.873Z,63.80
2022-12-08T21:18:05.745Z,63.80
2022-12-08T21:20:33.846Z,63.80
2022-12-08T21:23:01.525Z,63.80
2022-12-08T21:25:30.889Z,63.80
2022-12-08T21:27:58.630Z,63.80
2022-12-08T21:30:26.604Z,63.80
2022-12-08T21:32:54.324Z,63.70
2022-12-08T21:35:22.487Z,63.80
2022-12-08T21:37:50.151Z,63.90
2022-12-08T21:40:17.942Z,63.90
2022-12-08T21:42:47.357Z,63.90
2022-12-08T21:45:16.047Z,63.90
2022-12-08T21:47:44.186Z,63.90
2022-12-08T21:50:12.560Z,64.00
2022-12-08T21:52:41.164Z,63.90
2022-12-08T21:55:09.769Z,63.90
2022-12-08T21:57:37.717Z,64.00
2022-12-08T22:00:11.056Z,63.90
2022-12-08T22:02:39.522Z,63.90
2022-12-08T22:05:08.185Z,63.90
2022-12-08T22:07:39.124Z,63.90
2022-12-08T22:10:09.274Z,63.90
2022-12-08T22:13:26.899Z,63.90
2022-12-08T22:15:59.362Z,63.70
2022-12-08T22:18:27.587Z,64.00
2022-12-08T22:20:55.586Z,64.00
2022-12-08T22:23:23.257Z,64.00
2022-12-08T22:25:56.830Z,64.00
2022-12-08T22:28:24.620Z,64.00
2022-12-08T22:30:52.456Z,64.10
2022-12-08T22:33:21.549Z,64.20
2022-12-08T22:35:56.204Z,64.30
2022-12-08T22:38:24.001Z,64.60
2022-12-08T22:40:51.775Z,64.80
2022-12-08T22:43:19.626Z,64.90
2022-12-08T22:45:47.329Z,65.00
2022-12-08T22:48:15.477Z,65.90
2022-12-08T22:50:44.735Z,65.00
2022-12-08T22:53:12.502Z,65.00
2022-12-08T22:55:42.213Z,65.00
2022-12-08T22:58:10.327Z,65.00
2022-12-08T23:00:38.138Z,65.00
2022-12-08T23:03:05.942Z,65.00
2022-12-08T23:05:34.393Z,65.00
2022-12-08T23:08:04.308Z,64.90
2022-12-08T23:10:32.506Z,65.00
2022-12-08T23:13:03.716Z,65.00
2022-12-08T23:15:31.765Z,65.00
2022-12-08T23:17:59.823Z,65.20
2022-12-08T23:20:27.610Z,65.20
2022-12-08T23:22:55.277Z,65.20
2022-12-08T23:25:24.438Z,65.20
2022-12-08T23:27:52.168Z,65.30
2022-12-08T23:30:20.126Z,65.20
2022-12-08T23:32:48.069Z,65.40
2022-12-08T23:35:15.916Z,65.40
2022-12-08T23:37:43.715Z,65.30
2022-12-08T23:40:12.255Z,65.40
2022-12-08T23:42:42.043Z,65.40
2022-12-08T23:45:10.612Z,65.60
2022-12-08T23:47:38.201Z,65.70
2022-12-08T23:50:08.113Z,65.80
2022-12-08T23:52:37.658Z,65.80
2022-12-08T23:55:08.549Z,65.90
2022-12-08T23:57:36.634Z,65.90
